Tuesday, December 18, 2018, 4:15 PM EST
Back to Local

KPVD, Providence Green State Airport

Location: Warwick, RI, United States Lat: 41.733
Local Time: 4:15 PM EST (21:15 GMT) Lon: -71.433
Time Zone: US/Eastern Elev: 55 ft

Show me the last for .
Show Decoded

2018-12-18 15:51 METAR KPVD 182051Z 31012G19KT 10SM FEW045 M01/M12 A2995 RMK AO2 SLP143 T10061117
                 51027 =
2018-12-18 14:51 METAR KPVD 181951Z 32011G26KT 10SM FEW045 01/M12 A2993 RMK AO2 PK WND 32028/1859
                 SLP134 T00061117 =
2018-12-18 13:51 METAR KPVD 181851Z 31016G25KT 10SM FEW045 01/M12 A2990 RMK AO2 PK WND 32027/1834
                 SLP125 T00061117 =
2018-12-18 12:51 METAR KPVD 181751Z 33015G24KT 10SM FEW045 FEW100 00/M12 A2987 RMK AO2 PK WND
                 32030/1709 SLP116 T00001122 10006 21039 51004 =
2018-12-18 11:51 METAR KPVD 181651Z 32017G27KT 10SM FEW045 FEW100 M01/M12 A2987 RMK AO2 PK WND
                 34031/1552 SLP114 T10061122 =
2018-12-18 10:51 METAR KPVD 181551Z 33021G32KT 10SM FEW045 FEW140 FEW300 M02/M13 A2987 RMK AO2 PK
                 WND 33032/1549 SLP115 T10171128 =
2018-12-18 09:51 METAR KPVD 181451Z 33017G30KT 10SM FEW040 FEW140 SCT300 M03/M13 A2986 RMK AO2 PK
                 WND 33030/1432 SLP112 T10281133 51027 =
2018-12-18 08:51 METAR KPVD 181351Z 34023G33KT 10SM FEW040 SCT300 M03/M13 A2985 RMK AO2 PK WND
                 32033/1304 SLP107 T10331133 =
2018-12-18 07:51 METAR KPVD 181251Z 31016G27KT 10SM FEW035 FEW080 SCT300 M04/M13 A2981 RMK AO2 PK
                 WND 34032/1212 SLP093 T10391133 =
2018-12-18 06:51 METAR KPVD 181151Z 33018G30KT 10SM FEW035 FEW300 M04/M13 A2978 RMK AO2 PK WND
                 30037/1105 SLP085 60000 T10391133 10028 21039 52036 =
2018-12-18 05:51 METAR KPVD 181051Z 32022G32KT 10SM CLR M03/M13 A2975 RMK AO2 PK WND 31041/1021
                 PRESRR SLP075 T10331133 =
2018-12-18 04:51 METAR KPVD 180951Z 33018G30KT 10SM OVC049 M02/M12 A2971 RMK AO2 PK WND
                 31033/0859 SLP059 T10221117 =
2018-12-18 03:51 METAR KPVD 180851Z 32017G23KT 10SM FEW046 M01/M10 A2968 RMK AO2 PK WND
                 33032/0805 SLP049 60000 T10111100 53028 =
2018-12-18 02:51 METAR KPVD 180751Z 30018G24KT 10SM BKN045 OVC055 01/M07 A2964 RMK AO2 PK WND
                 31026/0731 SLP036 T00061072 =
2018-12-18 01:51 METAR KPVD 180651Z 30017G26KT 10SM CLR 01/M04 A2962 RMK AO2 PK WND 30034/0607
                 SNB0557E23 SLP028 P0000 T00111039 =
2018-12-18 00:51 METAR KPVD 180551Z 29016G23KT 10SM BKN041 BKN070 OVC085 03/M04 A2959 RMK AO2
                 SLP021 T00281044 10039 20028 56007 =
2018-12-17 23:51 METAR KPVD 180451Z COR 27014G19KT 10SM FEW050 OVC090 03/M02 A2960 RMK AO2 LAST
                 SLP022 T00331022 400560022 =
2018-12-17 22:51 METAR KPVD 180351Z 27011KT 10SM SCT035 OVC085 03/M02 A2960 RMK AO2 SLP025
                 T00331022 =
2018-12-17 21:51 METAR KPVD 180251Z 26012KT 10SM OVC080 03/M03 A2961 RMK AO2 SLP028 T00331028
                 50005 =
2018-12-17 20:51 METAR KPVD 180151Z 27007KT 10SM OVC080 03/M03 A2962 RMK AO2 SLP029 T00331028 =
2018-12-17 19:51 METAR KPVD 180051Z 29009KT 10SM SCT060 03/M03 A2962 RMK AO2 SLP029 T00331028 =
2018-12-17 18:51 METAR KPVD 172351Z 29011KT 10SM SCT060 04/M03 A2960 RMK AO2 PK WND 26027/2331
                 SLP023 60000 T00441028 10050 20044 53011 =
2018-12-17 17:51 METAR KPVD 172251Z 30013G17KT 10SM OVC055 05/M02 A2958 RMK AO2 SLP018 T00501022
                 =
2018-12-17 16:51 METAR KPVD 172151Z 28010KT 10SM SCT065 04/M01 A2957 RMK AO2 SLP014 T00441011 =

Support USWX by starting your Amazon purchase here.